Time;durP1;ratioP1;P1;durP2;ratioP2;P2;SDS_P1;SDS_P2;PMS_P1;PMS_P2;Temp;Humidity;BMP_temperature;BMP_pressure;BME280_temperature;BME280_humidity;BME280_pressure;Samples;Min_cycle;Max_cycle;Signal;HPM_P1;HPM_P2
2021/01/27 00:00:46;;;;;;;;;;;22.80;33.20;;;;;;1552453;75;758;-60
2021/01/27 00:02:48;;;;;;;;;;;22.90;33.20;;;;;;1506902;78;716;-61
2021/01/27 00:04:50;;;;;;;;;;;22.90;33.30;;;;;;1550459;76;797;-60
2021/01/27 00:06:52;;;;;;;;;;;22.80;33.40;;;;;;1528437;76;664;-60
2021/01/27 00:08:54;;;;;;;;;;;22.80;33.20;;;;;;1527450;76;1952;-60
2021/01/27 00:10:56;;;;;;;;;;;22.90;33.30;;;;;;1542222;75;636;-61
2021/01/27 00:12:58;;;;;;;;;;;22.90;33.50;;;;;;1549214;75;773;-60
2021/01/27 00:15:00;;;;;;;;;;;22.80;33.40;;;;;;1549254;75;719;-61
2021/01/27 00:17:02;;;;;;;;;;;22.80;33.60;;;;;;1549207;75;708;-61
2021/01/27 00:19:03;;;;;;;;;;;22.80;33.60;;;;;;1549647;75;1094;-60
2021/01/27 00:21:05;;;;;;;;;;;22.80;33.80;;;;;;1549301;75;711;-60
2021/01/27 00:23:07;;;;;;;;;;;22.80;33.60;;;;;;1548879;75;762;-60
2021/01/27 00:25:09;;;;;;;;;;;22.80;33.60;;;;;;1548380;75;652;-60
2021/01/27 00:27:11;;;;;;;;;;;22.80;33.60;;;;;;1547040;75;1131;-60
2021/01/27 00:29:13;;;;;;;;;;;22.80;33.60;;;;;;1549647;75;1935;-60
2021/01/27 00:31:15;;;;;;;;;;;22.90;33.80;;;;;;1548468;76;618;-60
2021/01/27 00:33:17;;;;;;;;;;;22.80;33.80;;;;;;1549304;75;695;-59
2021/01/27 00:35:20;;;;;;;;;;;22.80;33.70;;;;;;1529792;77;787;-59
2021/01/27 00:37:22;;;;;;;;;;;22.80;33.70;;;;;;1544080;74;1156;-60
2021/01/27 00:39:24;;;;;;;;;;;22.80;33.90;;;;;;1540003;75;722;-60
2021/01/27 00:41:26;;;;;;;;;;;22.80;33.90;;;;;;1546561;75;709;-61
2021/01/27 00:43:28;;;;;;;;;;;22.80;33.90;;;;;;1554474;75;738;-60
2021/01/27 00:45:30;;;;;;;;;;;22.80;33.90;;;;;;1528913;76;723;-63
2021/01/27 00:47:32;;;;;;;;;;;22.80;33.90;;;;;;1528630;77;1179;-62
2021/01/27 00:49:34;;;;;;;;;;;22.80;33.90;;;;;;1512627;78;1933;-61
2021/01/27 00:51:35;;;;;;;;;;;22.80;33.90;;;;;;1555784;76;732;-61
2021/01/27 00:53:38;;;;;;;;;;;22.80;33.90;;;;;;1546110;75;720;-62
2021/01/27 00:55:40;;;;;;;;;;;22.90;33.90;;;;;;1536143;76;1040;-61
2021/01/27 00:57:42;;;;;;;;;;;22.90;33.90;;;;;;1585721;74;1109;-63
2021/01/27 00:59:43;;;;;;;;;;;22.80;33.60;;;;;;1587078;73;690;-62
2021/01/27 01:01:45;;;;;;;;;;;22.90;33.80;;;;;;1576355;73;781;-62
2021/01/27 01:03:47;;;;;;;;;;;22.90;33.80;;;;;;1583748;73;735;-69
2021/01/27 01:05:49;;;;;;;;;;;22.90;33.80;;;;;;1581482;75;723;-70
2021/01/27 01:07:51;;;;;;;;;;;22.90;33.80;;;;;;1575821;73;1131;-69
2021/01/27 01:09:53;;;;;;;;;;;23.00;33.80;;;;;;1573226;73;1900;-69
2021/01/27 01:11:55;;;;;;;;;;;22.90;33.80;;;;;;1578575;73;681;-69
2021/01/27 01:13:57;;;;;;;;;;;22.90;33.90;;;;;;1585427;73;738;-67
2021/01/27 01:15:59;;;;;;;;;;;22.90;33.90;;;;;;1582153;73;696;-66
2021/01/27 01:18:01;;;;;;;;;;;22.80;33.90;;;;;;1590673;73;1144;-69
2021/01/27 01:20:03;;;;;;;;;;;22.90;34.00;;;;;;1590849;73;705;-68
2021/01/27 01:22:05;;;;;;;;;;;22.90;34.20;;;;;;1583922;73;782;-63
2021/01/27 01:24:07;;;;;;;;;;;22.80;34.00;;;;;;1576422;73;723;-64
2021/01/27 01:26:09;;;;;;;;;;;22.80;34.50;;;;;;1585919;73;707;-64
2021/01/27 01:28:11;;;;;;;;;;;22.80;34.30;;;;;;1584404;73;1148;-64
2021/01/27 01:30:17;;;;;;;;;;;22.80;34.20;;;;;;1582383;73;1942;-63
2021/01/27 01:32:19;;;;;;;;;;;22.90;34.40;;;;;;1585215;73;719;-63
2021/01/27 01:34:22;;;;;;;;;;;22.80;34.20;;;;;;1571356;73;780;-64
2021/01/27 01:36:24;;;;;;;;;;;22.90;34.20;;;;;;1583359;73;780;-63
2021/01/27 01:38:26;;;;;;;;;;;22.90;34.20;;;;;;1576193;73;1214;-62
2021/01/27 01:40:29;;;;;;;;;;;22.90;34.20;;;;;;1584164;73;649;-63
2021/01/27 01:42:31;;;;;;;;;;;22.90;34.20;;;;;;1577814;73;753;-62
2021/01/27 01:44:32;;;;;;;;;;;22.80;34.10;;;;;;1586811;73;693;-62
2021/01/27 01:46:34;;;;;;;;;;;22.90;34.20;;;;;;1579123;75;788;-61
2021/01/27 01:48:38;;;;;;;;;;;22.80;34.10;;;;;;1585869;73;1105;-61
2021/01/27 01:50:40;;;;;;;;;;;22.90;34.20;;;;;;1579585;73;1938;-63
2021/01/27 01:52:41;;;;;;;;;;;22.90;34.20;;;;;;1589692;73;905;-63
2021/01/27 01:54:51;;;;;;;;;;;22.90;34.20;;;;;;1590292;73;737;-64
2021/01/27 01:56:54;;;;;;;;;;;22.90;34.20;;;;;;1581070;73;1688;-64
2021/01/27 01:58:57;;;;;;;;;;;22.90;34.10;;;;;;1579890;73;1725;-64
2021/01/27 02:01:00;;;;;;;;;;;22.90;34.10;;;;;;1586006;73;708;-64
2021/01/27 02:03:02;;;;;;;;;;;22.90;34.00;;;;;;1583926;73;691;-64
2021/01/27 02:05:05;;;;;;;;;;;22.90;34.10;;;;;;1586765;73;638;-65
2021/01/27 02:07:07;;;;;;;;;;;22.90;34.10;;;;;;1582082;73;747;-64
2021/01/27 02:09:09;;;;;;;;;;;22.90;34.10;;;;;;1577661;74;738;-63
2021/01/27 02:11:11;;;;;;;;;;;22.90;34.10;;;;;;1582280;75;1933;-62
2021/01/27 02:13:24;;;;;;;;;;;22.90;34.00;;;;;;1577490;73;769;-64
2021/01/27 02:15:28;;;;;;;;;;;22.90;33.90;;;;;;1587684;75;753;-63
2021/01/27 02:17:46;;;;;;;;;;;22.90;33.90;;;;;;1582039;74;1181;-65
2021/01/27 02:19:59;;;;;;;;;;;22.90;33.90;;;;;;1582378;74;775;-63
2021/01/27 02:22:17;;;;;;;;;;;22.90;34.00;;;;;;1585902;74;1773;-64
2021/01/27 02:24:24;;;;;;;;;;;22.90;33.90;;;;;;1585477;73;1793;-64
2021/01/27 02:26:27;;;;;;;;;;;22.90;33.90;;;;;;1578942;74;701;-64
2021/01/27 02:28:31;;;;;;;;;;;22.90;33.90;;;;;;1573536;73;1153;-64
2021/01/27 02:30:53;;;;;;;;;;;22.90;33.90;;;;;;1581287;74;1946;-65
2021/01/27 02:32:59;;;;;;;;;;;22.90;33.90;;;;;;1585906;73;761;-63
2021/01/27 02:35:02;;;;;;;;;;;22.80;33.80;;;;;;1585433;74;733;-64
2021/01/27 02:37:06;;;;;;;;;;;22.90;33.90;;;;;;1586410;73;702;-64
2021/01/27 02:39:21;;;;;;;;;;;22.90;33.90;;;;;;1590401;73;1755;-64
2021/01/27 02:41:41;;;;;;;;;;;22.90;33.90;;;;;;1588559;74;718;-64
2021/01/27 02:43:43;;;;;;;;;;;22.90;33.80;;;;;;1587245;73;791;-64
2021/01/27 02:45:48;;;;;;;;;;;22.90;33.80;;;;;;1583797;75;686;-62
2021/01/27 02:47:55;;;;;;;;;;;22.90;33.90;;;;;;1590669;74;2725;-63
2021/01/27 02:50:01;;;;;;;;;;;22.90;33.80;;;;;;1587716;73;1921;-61
2021/01/27 02:52:13;;;;;;;;;;;22.90;33.80;;;;;;1585947;73;777;-63
2021/01/27 02:54:20;;;;;;;;;;;22.90;33.80;;;;;;1587253;74;780;-63
2021/01/27 02:56:26;;;;;;;;;;;22.90;33.70;;;;;;1582142;73;719;-63
2021/01/27 02:58:29;;;;;;;;;;;22.90;33.80;;;;;;1581623;73;1084;-61
2021/01/27 03:00:35;;;;;;;;;;;22.90;33.70;;;;;;1588231;73;925;-63
2021/01/27 03:02:39;;;;;;;;;;;22.90;33.80;;;;;;1588519;73;755;-62
2021/01/27 03:04:42;;;;;;;;;;;22.90;33.70;;;;;;1592516;73;676;-62
2021/01/27 03:06:44;;;;;;;;;;;22.90;33.70;;;;;;1579902;73;671;-63
2021/01/27 03:08:47;;;;;;;;;;;22.90;33.70;;;;;;1583187;73;1148;-64
2021/01/27 03:11:09;;;;;;;;;;;22.90;33.60;;;;;;1587724;73;1984;-64
2021/01/27 03:13:11;;;;;;;;;;;22.90;33.60;;;;;;1589539;73;747;-62
2021/01/27 03:15:13;;;;;;;;;;;22.90;33.60;;;;;;1590854;74;614;-63
2021/01/27 03:17:16;;;;;;;;;;;22.90;33.60;;;;;;1586158;74;1146;-63
2021/01/27 03:19:19;;;;;;;;;;;22.90;33.60;;;;;;1592290;73;692;-64
2021/01/27 03:21:21;;;;;;;;;;;22.90;33.60;;;;;;1590810;73;749;-63
2021/01/27 03:23:25;;;;;;;;;;;22.90;33.50;;;;;;1589855;73;728;-63
2021/01/27 03:25:31;;;;;;;;;;;22.90;33.50;;;;;;1590824;74;1694;-62
2021/01/27 03:27:35;;;;;;;;;;;22.90;33.50;;;;;;1591160;74;1143;-64
2021/01/27 03:29:53;;;;;;;;;;;22.90;33.50;;;;;;1588910;73;700;-62
2021/01/27 03:31:56;;;;;;;;;;;22.90;33.50;;;;;;1584612;73;1921;-62
2021/01/27 03:34:01;;;;;;;;;;;22.90;33.50;;;;;;1583426;73;715;-64
2021/01/27 03:36:06;;;;;;;;;;;22.90;33.60;;;;;;1581851;73;760;-62
2021/01/27 03:38:10;;;;;;;;;;;22.90;33.60;;;;;;1587838;73;1061;-64
2021/01/27 03:40:12;;;;;;;;;;;22.90;33.60;;;;;;1590500;73;1113;-64
2021/01/27 03:42:16;;;;;;;;;;;22.80;33.50;;;;;;1590712;73;739;-65
2021/01/27 03:44:22;;;;;;;;;;;22.80;33.60;;;;;;1591126;73;736;-65
2021/01/27 03:46:31;;;;;;;;;;;22.80;33.60;;;;;;1590841;73;815;-64
2021/01/27 03:48:38;;;;;;;;;;;22.80;33.60;;;;;;1590636;73;1160;-63
2021/01/27 03:50:40;;;;;;;;;;;22.80;33.60;;;;;;1585237;73;1929;-65
2021/01/27 03:52:43;;;;;;;;;;;22.80;33.70;;;;;;1592782;73;768;-63
2021/01/27 03:54:46;;;;;;;;;;;22.80;33.80;;;;;;1579277;73;673;-63
2021/01/27 03:56:50;;;;;;;;;;;22.80;34.00;;;;;;1589235;74;743;-63
2021/01/27 03:58:52;;;;;;;;;;;22.80;34.00;;;;;;1589132;73;1144;-63
2021/01/27 04:00:55;;;;;;;;;;;22.80;34.50;;;;;;1590949;73;724;-61
2021/01/27 04:03:01;;;;;;;;;;;22.60;34.90;;;;;;1587216;73;1711;-61
2021/01/27 04:05:03;;;;;;;;;;;22.80;35.00;;;;;;1590236;73;821;-62
2021/01/27 04:07:05;;;;;;;;;;;22.60;35.30;;;;;;1585053;73;738;-62
2021/01/27 04:09:07;;;;;;;;;;;22.60;35.60;;;;;;1585190;73;1164;-62
2021/01/27 04:11:09;;;;;;;;;;;22.50;35.70;;;;;;1588686;73;1939;-62
2021/01/27 04:13:11;;;;;;;;;;;22.50;36.00;;;;;;1572967;73;690;-62
2021/01/27 04:15:13;;;;;;;;;;;22.50;36.40;;;;;;1579491;73;751;-63
2021/01/27 04:17:16;;;;;;;;;;;22.60;36.30;;;;;;1591676;73;1109;-62
2021/01/27 04:19:18;;;;;;;;;;;22.60;36.30;;;;;;1585779;73;739;-62
2021/01/27 04:21:20;;;;;;;;;;;22.50;36.30;;;;;;1583623;74;701;-62
2021/01/27 04:23:22;;;;;;;;;;;22.60;36.40;;;;;;1590615;73;730;-61
2021/01/27 04:25:24;;;;;;;;;;;22.50;36.30;;;;;;1579374;73;700;-61
2021/01/27 04:27:26;;;;;;;;;;;22.60;36.40;;;;;;1581983;73;1148;-62
2021/01/27 04:29:27;;;;;;;;;;;22.50;36.40;;;;;;1577640;73;693;-63
2021/01/27 04:31:29;;;;;;;;;;;22.60;36.50;;;;;;1583117;73;1941;-62
2021/01/27 04:33:31;;;;;;;;;;;22.60;36.50;;;;;;1586790;73;750;-62
2021/01/27 04:35:33;;;;;;;;;;;22.60;36.50;;;;;;1588945;73;662;-63
2021/01/27 04:37:35;;;;;;;;;;;22.60;36.50;;;;;;1577460;73;1159;-63
2021/01/27 04:39:37;;;;;;;;;;;22.60;36.50;;;;;;1577261;73;778;-63
2021/01/27 04:41:41;;;;;;;;;;;22.60;36.40;;;;;;1590018;73;789;-63
2021/01/27 04:43:43;;;;;;;;;;;22.60;36.30;;;;;;1589568;73;1814;-63
2021/01/27 04:45:45;;;;;;;;;;;22.60;36.30;;;;;;1589807;73;780;-64
2021/01/27 04:47:54;;;;;;;;;;;22.60;36.30;;;;;;1576373;74;1176;-64
2021/01/27 04:49:58;;;;;;;;;;;22.60;36.30;;;;;;1586522;73;1007;-62
2021/01/27 04:52:19;;;;;;;;;;;22.60;36.30;;;;;;1582007;73;1941;-63
2021/01/27 04:54:34;;;;;;;;;;;22.50;36.30;;;;;;1588120;73;784;-62
2021/01/27 04:56:44;;;;;;;;;;;22.60;36.30;;;;;;1579016;73;1774;-63
2021/01/27 04:58:47;;;;;;;;;;;22.60;36.30;;;;;;1578377;73;1672;-63
2021/01/27 05:01:06;;;;;;;;;;;22.70;36.30;;;;;;1581748;73;703;-62
2021/01/27 05:03:10;;;;;;;;;;;22.60;36.30;;;;;;1585051;73;685;-63
2021/01/27 05:05:12;;;;;;;;;;;22.70;36.30;;;;;;1587040;73;1866;-63
2021/01/27 05:07:15;;;;;;;;;;;22.60;36.30;;;;;;1576155;73;1086;-63
2021/01/27 05:09:21;;;;;;;;;;;22.60;36.20;;;;;;1583303;73;754;-63
2021/01/27 05:11:23;;;;;;;;;;;22.70;36.30;;;;;;1571559;73;1933;-62
2021/01/27 05:13:29;;;;;;;;;;;22.60;36.30;;;;;;1586132;73;756;-63
2021/01/27 05:15:31;;;;;;;;;;;22.60;36.20;;;;;;1579770;73;1433;-60
2021/01/27 05:17:33;;;;;;;;;;;22.70;36.30;;;;;;1577962;73;1155;-62
2021/01/27 05:19:35;;;;;;;;;;;22.60;36.10;;;;;;1579360;73;647;-63
2021/01/27 05:21:41;;;;;;;;;;;22.70;36.40;;;;;;1577620;73;784;-63
2021/01/27 05:23:42;;;;;;;;;;;22.70;36.20;;;;;;1590806;73;791;-62
2021/01/27 05:25:49;;;;;;;;;;;22.70;36.20;;;;;;1590565;73;698;-62
2021/01/27 05:27:51;;;;;;;;;;;22.70;36.30;;;;;;1577009;73;1843;-60
2021/01/27 05:30:00;;;;;;;;;;;22.70;36.30;;;;;;1587972;73;778;-64
2021/01/27 05:32:04;;;;;;;;;;;22.70;36.40;;;;;;1587180;73;1949;-63
2021/01/27 05:34:06;;;;;;;;;;;22.70;36.20;;;;;;1588132;73;673;-62
2021/01/27 05:36:12;;;;;;;;;;;22.70;36.20;;;;;;1587450;73;647;-60
2021/01/27 05:38:18;;;;;;;;;;;22.70;36.20;;;;;;1586779;73;1695;-62
2021/01/27 05:40:29;;;;;;;;;;;22.60;36.20;;;;;;1583960;73;1538;-63
2021/01/27 05:42:32;;;;;;;;;;;22.70;36.30;;;;;;1590948;73;752;-62
2021/01/27 05:44:34;;;;;;;;;;;22.70;36.50;;;;;;1579062;73;686;-62
2021/01/27 05:46:36;;;;;;;;;;;22.70;36.40;;;;;;1589153;73;762;-62
2021/01/27 05:48:43;;;;;;;;;;;22.70;36.50;;;;;;1588781;73;1198;-63
2021/01/27 05:50:44;;;;;;;;;;;22.70;36.40;;;;;;1588332;73;1925;-63
2021/01/27 05:52:46;;;;;;;;;;;22.60;36.30;;;;;;1583508;73;696;-63
2021/01/27 05:54:48;;;;;;;;;;;22.70;36.40;;;;;;1590805;73;717;-62
2021/01/27 05:56:50;;;;;;;;;;;22.60;36.10;;;;;;1581529;73;713;-62
2021/01/27 05:58:56;;;;;;;;;;;22.70;36.20;;;;;;1579371;73;1201;-62
2021/01/27 06:01:09;;;;;;;;;;;22.70;36.20;;;;;;1583551;73;706;-61
2021/01/27 06:03:11;;;;;;;;;;;22.70;36.10;;;;;;1560205;75;1079;-61
2021/01/27 06:05:16;;;;;;;;;;;22.70;36.40;;;;;;1582740;73;779;-61
2021/01/27 06:07:27;;;;;;;;;;;22.70;36.40;;;;;;1582674;73;1136;-60
2021/01/27 06:09:31;;;;;;;;;;;22.80;36.30;;;;;;1589695;73;778;-62
2021/01/27 06:11:33;;;;;;;;;;;22.70;36.40;;;;;;1585853;73;1958;-60
2021/01/27 06:13:35;;;;;;;;;;;22.70;36.50;;;;;;1578261;73;854;-61
2021/01/27 06:15:36;;;;;;;;;;;22.80;36.50;;;;;;1574501;73;735;-60
2021/01/27 06:17:42;;;;;;;;;;;22.70;36.60;;;;;;1576952;73;1173;-61
2021/01/27 06:19:46;;;;;;;;;;;22.70;36.50;;;;;;1588839;73;779;-62
2021/01/27 06:22:02;;;;;;;;;;;22.80;36.50;;;;;;1584241;73;1506;-61
2021/01/27 06:24:21;;;;;;;;;;;22.80;36.50;;;;;;1580490;73;695;-61
2021/01/27 06:26:27;;;;;;;;;;;22.80;36.50;;;;;;1582488;73;713;-63
2021/01/27 06:28:48;;;;;;;;;;;22.80;36.50;;;;;;1573346;73;1156;-63
2021/01/27 06:30:52;;;;;;;;;;;22.70;36.70;;;;;;1575963;73;738;-63
2021/01/27 06:33:11;;;;;;;;;;;22.80;36.60;;;;;;1585211;73;1930;-63
2021/01/27 06:35:21;;;;;;;;;;;22.80;36.50;;;;;;1580427;73;1164;-62
2021/01/27 06:37:24;;;;;;;;;;;22.80;36.50;;;;;;1587896;73;1296;-63
2021/01/27 06:39:31;;;;;;;;;;;22.80;36.50;;;;;;1582076;73;730;-60
2021/01/27 06:41:34;;;;;;;;;;;22.80;36.50;;;;;;1588744;73;723;-64
2021/01/27 06:43:38;;;;;;;;;;;22.80;36.60;;;;;;1584327;73;713;-64
2021/01/27 06:45:44;;;;;;;;;;;22.80;36.50;;;;;;1542722;75;1025;-62
2021/01/27 06:47:57;;;;;;;;;;;22.80;36.50;;;;;;1580981;73;1165;-62
2021/01/27 06:50:12;;;;;;;;;;;22.80;36.30;;;;;;1582281;73;686;-62
2021/01/27 06:52:19;;;;;;;;;;;22.80;36.30;;;;;;1580609;73;1933;-62
2021/01/27 06:54:40;;;;;;;;;;;22.80;36.30;;;;;;1589784;73;1908;-63
2021/01/27 06:57:00;;;;;;;;;;;23.10;36.50;;;;;;1590005;73;712;-63
2021/01/27 06:59:19;;;;;;;;;;;22.80;36.20;;;;;;1573658;73;1134;-63
2021/01/27 07:01:28;;;;;;;;;;;22.80;36.30;;;;;;1587696;73;797;-62
2021/01/27 07:03:35;;;;;;;;;;;22.80;36.20;;;;;;1589232;73;719;-63
2021/01/27 07:05:56;;;;;;;;;;;22.80;36.20;;;;;;1554116;74;1108;-60
2021/01/27 07:08:00;;;;;;;;;;;22.80;36.20;;;;;;1581550;74;1602;-61
2021/01/27 07:10:03;;;;;;;;;;;22.80;36.10;;;;;;1590098;73;1803;-62
2021/01/27 07:12:10;;;;;;;;;;;22.80;36.30;;;;;;1589779;74;1941;-60
2021/01/27 07:14:19;;;;;;;;;;;22.80;36.50;;;;;;1590673;73;814;-64
2021/01/27 07:16:28;;;;;;;;;;;22.80;36.60;;;;;;1591340;73;1944;-63
2021/01/27 07:18:35;;;;;;;;;;;22.80;36.30;;;;;;1577285;73;1164;-62
2021/01/27 07:20:40;;;;;;;;;;;22.80;36.30;;;;;;1583470;73;700;-62
2021/01/27 07:22:46;;;;;;;;;;;22.90;36.30;;;;;;1587026;73;731;-63
2021/01/27 07:25:02;;;;;;;;;;;22.80;36.30;;;;;;1591430;73;720;-61
2021/01/27 07:27:15;;;;;;;;;;;22.80;36.20;;;;;;1591327;73;779;-60
2021/01/27 07:29:21;;;;;;;;;;;22.90;36.40;;;;;;1584993;73;1650;-61
2021/01/27 07:31:30;;;;;;;;;;;22.80;36.50;;;;;;1588714;73;1944;-61
2021/01/27 07:33:42;;;;;;;;;;;22.80;36.70;;;;;;1592782;73;813;-63
2021/01/27 07:35:58;;;;;;;;;;;22.80;36.70;;;;;;1556509;75;745;-62
2021/01/27 07:38:01;;;;;;;;;;;22.80;36.60;;;;;;1550207;75;2299;-63
2021/01/27 07:40:05;;;;;;;;;;;22.80;36.80;;;;;;1548193;75;798;-63
2021/01/27 07:42:20;;;;;;;;;;;22.80;36.70;;;;;;1544923;75;661;-61
2021/01/27 07:44:22;;;;;;;;;;;22.90;36.90;;;;;;1537580;75;800;-63
2021/01/27 07:46:34;;;;;;;;;;;22.80;36.60;;;;;;1537969;77;704;-64
2021/01/27 07:48:44;;;;;;;;;;;22.80;36.60;;;;;;1527363;75;1143;-62
2021/01/27 07:50:53;;;;;;;;;;;22.80;36.70;;;;;;1547007;75;1806;-63
2021/01/27 07:52:57;;;;;;;;;;;22.80;36.60;;;;;;1551405;75;1935;-62
2021/01/27 07:55:00;;;;;;;;;;;22.80;36.60;;;;;;1528547;76;710;-64
2021/01/27 07:57:04;;;;;;;;;;;22.80;36.60;;;;;;1519192;75;1544;-63
2021/01/27 07:59:08;;;;;;;;;;;22.80;36.80;;;;;;1520845;77;1088;-64
2021/01/27 08:01:12;;;;;;;;;;;22.80;36.80;;;;;;1505311;78;691;-64
2021/01/27 08:03:32;;;;;;;;;;;22.80;36.90;;;;;;1549769;76;1264;-64
2021/01/27 08:05:35;;;;;;;;;;;22.80;36.90;;;;;;1529628;76;714;-63
2021/01/27 08:07:38;;;;;;;;;;;22.80;36.80;;;;;;1532647;75;1123;-62
2021/01/27 08:09:44;;;;;;;;;;;22.80;36.80;;;;;;1557677;74;743;-64
2021/01/27 08:11:44;;;;;;;;;;;22.80;36.80;;;;;;1528697;76;1952;-63
2021/01/27 08:13:46;;;;;;;;;;;22.80;37.00;;;;;;1529959;76;779;-64
2021/01/27 08:15:49;;;;;;;;;;;22.80;37.20;;;;;;1533783;76;809;-62
2021/01/27 08:17:58;;;;;;;;;;;22.80;36.90;;;;;;1535117;75;1722;-63
2021/01/27 08:20:10;;;;;;;;;;;22.80;37.00;;;;;;1553689;75;1563;-63
2021/01/27 08:22:12;;;;;;;;;;;22.80;37.00;;;;;;1555358;75;1083;-61
2021/01/27 08:24:31;;;;;;;;;;;22.80;37.00;;;;;;1503355;78;972;-60
2021/01/27 08:26:44;;;;;;;;;;;22.90;36.70;;;;;;1512488;77;676;-61
2021/01/27 08:28:46;;;;;;;;;;;22.90;36.30;;;;;;1535215;75;1195;-59
2021/01/27 08:31:02;;;;;;;;;;;23.00;36.00;;;;;;1538753;75;804;-61
2021/01/27 08:33:24;;;;;;;;;;;23.10;35.70;;;;;;1485767;77;1930;-60
2021/01/27 08:35:33;;;;;;;;;;;23.10;35.00;;;;;;1451877;81;1350;-59
2021/01/27 08:37:39;;;;;;;;;;;23.10;35.20;;;;;;1426177;81;1130;-61
2021/01/27 08:39:40;;;;;;;;;;;23.10;35.00;;;;;;1481797;79;733;-61
2021/01/27 08:41:50;;;;;;;;;;;23.10;34.90;;;;;;1571000;73;871;-62
2021/01/27 08:43:51;;;;;;;;;;;23.10;34.80;;;;;;1582748;73;1677;-60
2021/01/27 08:45:53;;;;;;;;;;;23.10;34.00;;;;;;1591524;74;732;-61
2021/01/27 08:47:56;;;;;;;;;;;23.10;34.50;;;;;;1584898;73;1127;-60
2021/01/27 08:49:58;;;;;;;;;;;23.10;34.40;;;;;;1591806;73;698;-61
2021/01/27 08:52:00;;;;;;;;;;;23.10;34.30;;;;;;1584948;73;1925;-59
2021/01/27 08:54:02;;;;;;;;;;;23.20;34.30;;;;;;1584653;73;810;-60
2021/01/27 08:56:04;;;;;;;;;;;23.10;34.20;;;;;;1536952;76;1258;-61
2021/01/27 08:58:23;;;;;;;;;;;23.10;34.10;;;;;;1522162;78;1138;-60
2021/01/27 09:00:29;;;;;;;;;;;23.10;33.90;;;;;;1539374;75;795;-59
2021/01/27 09:02:38;;;;;;;;;;;23.10;33.90;;;;;;1512891;78;678;-60
2021/01/27 09:04:40;;;;;;;;;;;23.10;33.90;;;;;;1542078;77;693;-61
2021/01/27 09:06:44;;;;;;;;;;;23.10;33.80;;;;;;1545959;75;724;-61
2021/01/27 09:08:46;;;;;;;;;;;23.00;33.60;;;;;;1548117;75;1177;-61
2021/01/27 09:10:50;;;;;;;;;;;23.00;33.60;;;;;;1555978;75;790;-61
2021/01/27 09:12:52;;;;;;;;;;;23.00;33.60;;;;;;1537812;75;1921;-58
2021/01/27 09:14:54;;;;;;;;;;;23.00;33.60;;;;;;1518331;77;709;-61
2021/01/27 09:16:56;;;;;;;;;;;23.00;33.40;;;;;;1552830;75;657;-59
2021/01/27 09:18:59;;;;;;;;;;;23.00;33.40;;;;;;1549037;75;1174;-61
2021/01/27 09:21:16;;;;;;;;;;;23.00;33.30;;;;;;1509868;77;710;-61
2021/01/27 09:23:19;;;;;;;;;;;23.00;33.10;;;;;;1516911;77;645;-61
2021/01/27 09:25:21;;;;;;;;;;;23.00;33.20;;;;;;1546057;75;713;-61
2021/01/27 09:27:27;;;;;;;;;;;23.00;33.20;;;;;;1546422;75;1138;-61
2021/01/27 09:29:30;;;;;;;;;;;23.10;33.30;;;;;;1532625;75;1043;-58
2021/01/27 09:31:32;;;;;;;;;;;23.00;33.10;;;;;;1534742;75;663;-60
2021/01/27 09:33:34;;;;;;;;;;;23.00;33.10;;;;;;1548241;76;1937;-60
2021/01/27 09:35:35;;;;;;;;;;;23.00;33.10;;;;;;1528741;76;709;-59
2021/01/27 09:37:39;;;;;;;;;;;23.10;33.30;;;;;;1521251;76;1183;-59
2021/01/27 09:39:42;;;;;;;;;;;23.10;33.20;;;;;;1552796;75;726;-58
2021/01/27 09:41:44;;;;;;;;;;;23.00;33.00;;;;;;1528757;76;796;-60
2021/01/27 09:43:46;;;;;;;;;;;23.10;33.10;;;;;;1549892;75;720;-58
2021/01/27 09:45:50;;;;;;;;;;;23.00;32.90;;;;;;1517998;77;849;-60
2021/01/27 09:47:51;;;;;;;;;;;23.00;33.00;;;;;;1524518;75;1124;-61
2021/01/27 09:49:54;;;;;;;;;;;23.00;32.90;;;;;;1528025;75;730;-60
2021/01/27 09:51:56;;;;;;;;;;;23.00;32.90;;;;;;1543257;75;738;-61
2021/01/27 09:53:59;;;;;;;;;;;23.00;32.80;;;;;;1532374;75;1945;-60
2021/01/27 09:56:00;;;;;;;;;;;22.90;32.80;;;;;;1537556;75;724;-61
2021/01/27 09:58:05;;;;;;;;;;;23.00;32.70;;;;;;1538716;75;1133;-60
2021/01/27 10:00:08;;;;;;;;;;;23.00;32.80;;;;;;1537416;75;661;-61
2021/01/27 10:02:12;;;;;;;;;;;23.00;32.80;;;;;;1540824;75;663;-61
2021/01/27 10:04:16;;;;;;;;;;;23.00;32.70;;;;;;1544122;75;619;-60
2021/01/27 10:06:35;;;;;;;;;;;23.00;32.80;;;;;;1554170;75;1751;-61
2021/01/27 10:08:37;;;;;;;;;;;23.00;32.70;;;;;;1512915;77;1713;-59
2021/01/27 10:10:39;;;;;;;;;;;22.90;32.80;;;;;;1568031;75;745;-61
2021/01/27 10:12:41;;;;;;;;;;;22.90;32.80;;;;;;1566915;75;1931;-61
2021/01/27 10:14:43;;;;;;;;;;;22.90;32.80;;;;;;1557611;75;818;-61
2021/01/27 10:16:48;;;;;;;;;;;22.90;32.60;;;;;;1545597;75;692;-59
2021/01/27 10:18:50;;;;;;;;;;;22.90;32.80;;;;;;1551944;75;1194;-61
2021/01/27 10:20:52;;;;;;;;;;;22.90;32.60;;;;;;1531017;76;1134;-61
2021/01/27 10:23:04;;;;;;;;;;;22.90;32.50;;;;;;1501231;77;1116;-61
2021/01/27 10:25:24;;;;;;;;;;;22.80;32.50;;;;;;1532550;76;1118;-62
2021/01/27 10:27:33;;;;;;;;;;;22.80;32.50;;;;;;1518830;77;1210;-63
2021/01/27 10:29:36;;;;;;;;;;;22.80;32.60;;;;;;1512039;77;763;-63
2021/01/27 10:31:38;;;;;;;;;;;22.80;32.60;;;;;;1566270;75;716;-63
2021/01/27 10:33:41;;;;;;;;;;;22.70;32.60;;;;;;1562080;75;1938;-62
2021/01/27 10:35:43;;;;;;;;;;;22.80;32.40;;;;;;1556860;75;701;-62
2021/01/27 10:37:45;;;;;;;;;;;22.80;32.30;;;;;;1556862;75;1184;-61
2021/01/27 10:39:48;;;;;;;;;;;22.80;32.50;;;;;;1566983;75;695;-57
2021/01/27 10:41:54;;;;;;;;;;;22.80;32.70;;;;;;1558705;75;1583;-61
2021/01/27 10:43:56;;;;;;;;;;;22.80;32.60;;;;;;1520530;76;695;-61
2021/01/27 10:45:58;;;;;;;;;;;22.80;32.70;;;;;;1531651;76;1118;-61
2021/01/27 10:48:07;;;;;;;;;;;22.80;32.50;;;;;;1556002;75;1171;-61
2021/01/27 10:50:10;;;;;;;;;;;22.80;32.50;;;;;;1512111;77;772;-61
2021/01/27 10:52:17;;;;;;;;;;;22.80;32.50;;;;;;1547125;75;703;-61
2021/01/27 10:54:20;;;;;;;;;;;22.70;32.50;;;;;;1503416;78;1936;-61
2021/01/27 10:56:23;;;;;;;;;;;22.70;32.40;;;;;;1534874;75;756;-61
2021/01/27 10:58:25;;;;;;;;;;;22.70;32.30;;;;;;1552157;76;1175;-61
2021/01/27 11:00:26;;;;;;;;;;;22.70;32.50;;;;;;1556126;75;749;-60
2021/01/27 11:02:29;;;;;;;;;;;22.70;32.40;;;;;;1502980;78;982;-61
2021/01/27 11:04:31;;;;;;;;;;;22.70;32.30;;;;;;1541151;75;718;-61
2021/01/27 11:06:33;;;;;;;;;;;22.80;32.40;;;;;;1543835;75;727;-61
2021/01/27 11:08:35;;;;;;;;;;;22.70;32.30;;;;;;1540855;76;1133;-61
2021/01/27 11:10:37;;;;;;;;;;;22.70;32.40;;;;;;1556264;75;714;-61
2021/01/27 11:12:39;;;;;;;;;;;22.70;32.40;;;;;;1537404;76;1941;-61
2021/01/27 11:14:40;;;;;;;;;;;22.80;32.30;;;;;;1555513;75;774;-60
2021/01/27 11:16:42;;;;;;;;;;;22.80;32.20;;;;;;1527739;76;791;-61
2021/01/27 11:18:44;;;;;;;;;;;22.70;32.10;;;;;;1512496;77;1234;-60
2021/01/27 11:20:46;;;;;;;;;;;22.80;32.20;;;;;;1555632;76;702;-60
2021/01/27 11:22:48;;;;;;;;;;;22.80;32.20;;;;;;1549345;75;766;-60
2021/01/27 11:24:50;;;;;;;;;;;22.70;32.10;;;;;;1529293;77;853;-60
2021/01/27 11:26:52;;;;;;;;;;;22.80;32.10;;;;;;1510045;78;790;-61
2021/01/27 11:28:54;;;;;;;;;;;22.70;32.20;;;;;;1552821;75;1304;-60
2021/01/27 11:30:56;;;;;;;;;;;22.70;32.30;;;;;;1553468;75;832;-59
2021/01/27 11:32:58;;;;;;;;;;;22.70;32.20;;;;;;1548719;75;1935;-58
2021/01/27 11:35:00;;;;;;;;;;;22.80;32.30;;;;;;1555557;75;762;-59
2021/01/27 11:37:02;;;;;;;;;;;22.80;32.20;;;;;;1549037;75;721;-61
2021/01/27 11:39:04;;;;;;;;;;;22.80;32.10;;;;;;1529176;76;1111;-61
2021/01/27 11:41:06;;;;;;;;;;;22.80;32.20;;;;;;1555524;75;715;-61
2021/01/27 11:43:07;;;;;;;;;;;22.80;32.20;;;;;;1558271;75;674;-61
2021/01/27 11:45:10;;;;;;;;;;;22.80;32.00;;;;;;1556254;75;724;-61
2021/01/27 11:47:11;;;;;;;;;;;22.80;31.80;;;;;;1555704;75;1129;-61
2021/01/27 11:49:13;;;;;;;;;;;22.80;31.80;;;;;;1556061;75;773;-61
2021/01/27 11:51:15;;;;;;;;;;;22.80;32.00;;;;;;1501080;77;685;-61
2021/01/27 11:53:17;;;;;;;;;;;22.90;32.10;;;;;;1548546;75;1927;-61
2021/01/27 11:55:20;;;;;;;;;;;22.80;31.90;;;;;;1548699;75;780;-61
2021/01/27 11:57:21;;;;;;;;;;;22.80;31.80;;;;;;1555135;75;1133;-61
2021/01/27 11:59:23;;;;;;;;;;;22.90;31.90;;;;;;1542938;75;675;-60
2021/01/27 12:01:30;;;;;;;;;;;22.90;31.80;;;;;;1552283;75;713;-61
2021/01/27 12:03:32;;;;;;;;;;;22.80;31.70;;;;;;1530112;77;1844;-61
2021/01/27 12:05:35;;;;;;;;;;;22.80;31.80;;;;;;1527084;76;716;-60
2021/01/27 12:07:36;;;;;;;;;;;22.80;31.90;;;;;;1549336;75;1173;-60
2021/01/27 12:09:38;;;;;;;;;;;22.80;32.00;;;;;;1547639;75;718;-61
2021/01/27 12:11:40;;;;;;;;;;;22.80;32.10;;;;;;1549383;75;719;-61
2021/01/27 12:13:42;;;;;;;;;;;22.80;32.20;;;;;;1549640;75;1935;-59
2021/01/27 12:15:44;;;;;;;;;;;22.80;32.30;;;;;;1548885;75;795;-60
2021/01/27 12:17:46;;;;;;;;;;;22.90;32.40;;;;;;1549844;75;1230;-60
2021/01/27 12:19:48;;;;;;;;;;;22.90;32.40;;;;;;1549248;76;711;-61
2021/01/27 12:21:50;;;;;;;;;;;23.00;32.50;;;;;;1542782;75;692;-61
2021/01/27 12:23:52;;;;;;;;;;;23.00;32.40;;;;;;1546350;75;955;-61